createdAt,value
2023-06-04T00:01:24.927Z,9.70
2023-06-04T00:06:26.731Z,9.70
2023-06-04T00:11:28.694Z,9.80
2023-06-04T00:16:30.532Z,9.90
2023-06-04T00:21:32.320Z,9.90
2023-06-04T00:26:34.973Z,9.90
2023-06-04T00:31:36.994Z,10.00
2023-06-04T00:36:38.801Z,10.00
2023-06-04T00:41:40.659Z,10.00
2023-06-04T00:46:46.579Z,10.10
2023-06-04T00:51:49.081Z,10.20
2023-06-04T00:56:50.931Z,10.10
2023-06-04T01:01:58.300Z,10.20
2023-06-04T01:07:31.699Z,10.20
2023-06-04T01:12:33.491Z,10.20
2023-06-04T01:17:42.158Z,10.20
2023-06-04T01:23:15.720Z,10.20
2023-06-04T01:28:18.328Z,10.20
2023-06-04T01:33:21.190Z,10.20
2023-06-04T01:38:23.262Z,10.20
2023-06-04T01:43:25.044Z,10.20
2023-06-04T01:48:26.985Z,10.20
2023-06-04T01:53:28.899Z,10.30
2023-06-04T01:58:33.056Z,10.40
2023-06-04T02:03:37.129Z,10.30
2023-06-04T02:08:39.688Z,10.30
2023-06-04T02:13:41.621Z,10.40
2023-06-04T02:18:43.392Z,10.40
2023-06-04T02:23:45.216Z,10.40
2023-06-04T02:28:47.220Z,10.40
2023-06-04T02:33:49.050Z,10.40
2023-06-04T02:38:52.288Z,10.50
2023-06-04T02:43:54.071Z,10.60
2023-06-04T02:48:55.806Z,10.60
2023-06-04T02:53:57.759Z,10.60
2023-06-04T02:58:59.851Z,10.60
2023-06-04T03:04:05.067Z,10.60
2023-06-04T03:09:08.150Z,10.80
2023-06-04T03:14:09.975Z,10.70
2023-06-04T03:19:12.782Z,10.70
2023-06-04T03:24:14.716Z,10.70
2023-06-04T03:29:16.768Z,10.60
2023-06-04T03:34:18.532Z,10.50
2023-06-04T03:39:20.576Z,10.50
2023-06-04T03:44:22.936Z,10.60
2023-06-04T03:49:24.748Z,10.60
2023-06-04T03:54:26.554Z,10.70
2023-06-04T03:59:28.355Z,11.10
2023-06-04T04:04:30.206Z,11.10
2023-06-04T04:09:32.008Z,11.20
2023-06-04T04:14:33.934Z,11.20
2023-06-04T04:19:35.766Z,11.30
2023-06-04T04:24:38.724Z,11.30
2023-06-04T04:29:40.682Z,11.30
2023-06-04T04:34:55.775Z,11.30
2023-06-04T04:39:57.584Z,11.30
2023-06-04T04:44:59.422Z,11.40
2023-06-04T04:50:01.267Z,11.50
2023-06-04T04:55:04.086Z,11.60
2023-06-04T05:00:08.079Z,11.80
2023-06-04T05:05:11.865Z,11.80
2023-06-04T05:10:14.050Z,12.00
2023-06-04T05:15:18.719Z,12.30
2023-06-04T05:20:22.109Z,12.30
2023-06-04T05:25:24.572Z,12.40
2023-06-04T05:30:27.115Z,12.50
2023-06-04T05:35:28.918Z,12.50
2023-06-04T05:40:31.506Z,12.50
2023-06-04T05:45:33.283Z,12.90
2023-06-04T05:50:35.356Z,13.30
2023-06-04T05:55:38.638Z,13.50
2023-06-04T06:00:42.456Z,13.60
2023-06-04T06:05:44.637Z,13.60
2023-06-04T06:10:46.537Z,13.60
2023-06-04T06:15:51.880Z,13.40
2023-06-04T06:20:53.810Z,13.30
2023-06-04T06:25:55.750Z,13.50
2023-06-04T06:30:57.632Z,14.10
2023-06-04T06:36:02.382Z,15.20
2023-06-04T06:41:04.410Z,15.70
2023-06-04T06:46:06.471Z,16.10
2023-06-04T06:51:08.471Z,15.70
2023-06-04T06:56:10.480Z,15.00
2023-06-04T07:01:12.761Z,14.70
2023-06-04T07:06:14.578Z,14.60
2023-06-04T07:11:17.805Z,14.40
2023-06-04T07:16:21.359Z,14.50
2023-06-04T07:21:25.168Z,15.20
2023-06-04T07:26:27.631Z,15.20
2023-06-04T07:31:29.656Z,14.70
2023-06-04T07:36:32.158Z,14.80
2023-06-04T07:41:34.118Z,16.50
2023-06-04T07:46:36.008Z,17.00
2023-06-04T07:51:38.331Z,16.70
2023-06-04T07:56:40.339Z,16.20
2023-06-04T08:01:42.089Z,15.70
2023-06-04T08:06:45.861Z,15.10
2023-06-04T08:11:48.072Z,15.20
2023-06-04T08:16:49.883Z,15.80
2023-06-04T08:21:52.040Z,16.50
2023-06-04T08:26:53.794Z,17.30
2023-06-04T08:31:55.689Z,16.80
2023-06-04T08:36:57.997Z,16.10
2023-06-04T08:42:08.664Z,16.00
2023-06-04T08:47:13.997Z,15.90
2023-06-04T08:52:16.125Z,15.40
2023-06-04T08:57:20.217Z,15.20
2023-06-04T09:02:22.319Z,15.00
2023-06-04T09:07:26.169Z,14.80
2023-06-04T09:12:31.027Z,14.80
2023-06-04T09:17:33.896Z,14.60
2023-06-04T09:22:37.441Z,14.40
2023-06-04T09:27:41.087Z,14.30
2023-06-04T09:32:43.488Z,14.40
2023-06-04T09:37:57.094Z,14.80
2023-06-04T09:42:59.057Z,14.50
2023-06-04T09:48:01.929Z,14.30
2023-06-04T09:53:23.613Z,14.00
2023-06-04T09:58:32.303Z,13.80
2023-06-04T10:03:38.110Z,13.60
2023-06-04T10:08:42.996Z,13.70
2023-06-04T10:14:22.544Z,13.80
2023-06-04T10:19:25.412Z,13.70
2023-06-04T10:24:27.954Z,13.90
2023-06-04T10:29:31.742Z,14.20
2023-06-04T10:34:34.490Z,14.90
2023-06-04T10:39:36.395Z,15.40
2023-06-04T10:44:49.281Z,15.90
2023-06-04T10:49:52.510Z,16.50
2023-06-04T10:55:08.054Z,16.80
2023-06-04T11:00:11.254Z,17.70
2023-06-04T11:05:13.196Z,17.80
2023-06-04T11:10:16.333Z,18.20
2023-06-04T11:15:18.755Z,19.10
2023-06-04T11:20:22.479Z,19.00
2023-06-04T11:25:25.895Z,18.70
2023-06-04T11:30:28.093Z,17.90
2023-06-04T11:35:30.329Z,17.80
2023-06-04T11:40:32.230Z,17.50
2023-06-04T11:45:34.074Z,17.10
2023-06-04T11:50:36.398Z,17.00
2023-06-04T11:55:40.115Z,16.50
2023-06-04T12:00:42.179Z,15.90
2023-06-04T12:05:44.057Z,15.60
2023-06-04T12:10:46.213Z,14.80
2023-06-04T12:15:54.106Z,14.10
2023-06-04T12:20:56.016Z,13.70
2023-06-04T12:25:57.917Z,13.40
2023-06-04T12:30:59.693Z,13.30
2023-06-04T12:36:01.510Z,13.00
2023-06-04T12:41:03.297Z,12.90
2023-06-04T12:46:05.193Z,13.00
2023-06-04T12:51:09.805Z,13.00
2023-06-04T12:56:11.930Z,13.40
2023-06-04T13:01:14.126Z,13.60
2023-06-04T13:06:16.507Z,13.30
2023-06-04T13:11:18.696Z,13.10
2023-06-04T13:16:20.660Z,12.90
2023-06-04T13:21:22.644Z,12.70
2023-06-04T13:26:24.691Z,12.90
2023-06-04T13:31:26.524Z,12.90
2023-06-04T13:36:28.529Z,13.30
2023-06-04T13:41:30.346Z,13.60
2023-06-04T13:46:32.298Z,13.80
2023-06-04T13:51:34.143Z,14.00
2023-06-04T13:56:37.145Z,14.00
2023-06-04T14:01:39.010Z,14.10
2023-06-04T14:06:40.887Z,14.50
2023-06-04T14:11:42.781Z,14.40
2023-06-04T14:16:45.963Z,14.10
2023-06-04T14:21:47.725Z,14.30
2023-06-04T14:26:49.565Z,14.30
2023-06-04T14:31:51.434Z,13.90
2023-06-04T14:36:53.760Z,14.40
2023-06-04T14:41:55.728Z,14.50
2023-06-04T14:46:57.745Z,14.50
2023-06-04T14:51:59.622Z,14.40
2023-06-04T14:57:02.135Z,14.50
2023-06-04T15:02:04.113Z,14.40
2023-06-04T15:07:06.303Z,14.60
2023-06-04T15:12:08.122Z,14.90
2023-06-04T15:17:10.810Z,15.00
2023-06-04T15:22:12.565Z,14.70
2023-06-04T15:27:14.369Z,15.00
2023-06-04T15:32:16.443Z,14.70
2023-06-04T15:37:18.343Z,14.60
2023-06-04T15:42:20.083Z,14.60
2023-06-04T15:47:21.943Z,14.50
2023-06-04T15:52:23.778Z,14.40
2023-06-04T15:57:26.338Z,14.30
2023-06-04T16:02:28.187Z,14.00
2023-06-04T16:07:30.076Z,13.80
2023-06-04T16:12:31.859Z,13.80
2023-06-04T16:17:33.803Z,13.50
2023-06-04T16:22:35.673Z,13.20
2023-06-04T16:27:37.626Z,13.00
2023-06-04T16:32:39.428Z,12.90
2023-06-04T16:37:41.395Z,12.70
2023-06-04T16:42:43.136Z,12.70
2023-06-04T16:47:45.244Z,12.50
2023-06-04T16:52:47.042Z,12.50
2023-06-04T16:57:48.804Z,12.40
2023-06-04T17:02:50.684Z,12.40
2023-06-04T17:07:53.314Z,12.50
2023-06-04T17:12:55.057Z,12.40
2023-06-04T17:18:01.357Z,12.40
2023-06-04T17:23:03.511Z,12.30
2023-06-04T17:28:05.389Z,12.30
2023-06-04T17:33:07.146Z,12.20
2023-06-04T17:38:09.124Z,12.10
2023-06-04T17:43:11.035Z,12.00
2023-06-04T17:48:12.885Z,11.90
2023-06-04T17:53:14.733Z,11.80
2023-06-04T17:58:17.198Z,11.70
2023-06-04T18:03:18.993Z,11.60
2023-06-04T18:08:21.761Z,11.50
2023-06-04T18:13:23.534Z,11.40
2023-06-04T18:18:25.440Z,11.40
2023-06-04T18:23:27.228Z,11.20
2023-06-04T18:28:29.056Z,11.00
2023-06-04T18:33:30.904Z,10.90
2023-06-04T18:38:33.803Z,10.80
2023-06-04T18:43:37.467Z,10.70
2023-06-04T18:48:39.193Z,10.70
2023-06-04T18:53:41.016Z,10.50
2023-06-04T18:58:47.359Z,10.50
2023-06-04T19:03:50.218Z,10.30
2023-06-04T19:08:52.093Z,10.20
2023-06-04T19:13:54.417Z,10.10
2023-06-04T19:18:56.284Z,10.00
2023-06-04T19:23:58.106Z,9.80
2023-06-04T19:28:59.953Z,9.90
2023-06-04T19:34:01.745Z,9.80
2023-06-04T19:39:03.970Z,9.70
2023-06-04T19:44:05.937Z,9.60
2023-06-04T19:49:07.681Z,9.50
2023-06-04T19:54:09.494Z,9.40
2023-06-04T19:59:11.306Z,9.30
2023-06-04T20:04:13.830Z,9.10
2023-06-04T20:09:15.776Z,9.00
2023-06-04T20:14:17.553Z,8.90
2023-06-04T20:19:19.458Z,8.80
2023-06-04T20:24:21.320Z,8.70
2023-06-04T20:29:23.238Z,8.60
2023-06-04T20:34:25.772Z,8.50
2023-06-04T20:39:31.943Z,8.40
2023-06-04T20:44:33.975Z,8.30
2023-06-04T20:49:35.869Z,8.20
2023-06-04T20:54:37.614Z,8.10
2023-06-04T20:59:39.415Z,7.90
2023-06-04T21:04:41.249Z,7.90
2023-06-04T21:09:42.998Z,7.90
2023-06-04T21:14:44.801Z,7.90
2023-06-04T21:19:46.689Z,7.80
2023-06-04T21:24:48.653Z,7.70
2023-06-04T21:29:50.545Z,7.50
2023-06-04T21:34:52.340Z,7.40
2023-06-04T21:39:54.859Z,7.30
2023-06-04T21:44:56.620Z,7.30
2023-06-04T21:50:00.363Z,7.20
2023-06-04T21:55:02.300Z,7.10
2023-06-04T22:00:05.150Z,7.00
2023-06-04T22:05:07.246Z,6.90
2023-06-04T22:10:09.464Z,6.90
2023-06-04T22:15:11.551Z,6.90
2023-06-04T22:20:13.643Z,6.80
2023-06-04T22:25:15.585Z,6.80
2023-06-04T22:30:17.431Z,6.80
2023-06-04T22:35:19.302Z,6.80
2023-06-04T22:40:21.415Z,6.80
2023-06-04T22:45:23.272Z,6.70
2023-06-04T22:50:25.039Z,6.60
2023-06-04T22:55:26.817Z,6.60
2023-06-04T23:00:29.038Z,6.50
2023-06-04T23:05:31.970Z,6.50
2023-06-04T23:10:33.763Z,6.50
2023-06-04T23:15:35.597Z,6.50
2023-06-04T23:20:37.365Z,6.40
2023-06-04T23:25:39.116Z,6.40
2023-06-04T23:30:41.004Z,6.30
2023-06-04T23:35:42.788Z,6.10
2023-06-04T23:40:44.694Z,6.10
2023-06-04T23:45:46.533Z,6.00
2023-06-04T23:50:48.413Z,6.00
2023-06-04T23:55:50.425Z,5.90
